createdAt,value
2018-09-30T00:00:56.956Z,55.40
2018-09-30T00:05:47.850Z,55.50
2018-09-30T00:10:38.745Z,55.50
2018-09-30T00:15:29.654Z,55.60
2018-09-30T00:20:21.294Z,55.60
2018-09-30T00:25:18.381Z,55.60
2018-09-30T00:30:09.286Z,55.50
2018-09-30T00:35:01.655Z,55.60
2018-09-30T00:39:52.576Z,55.60
2018-09-30T00:44:44.198Z,55.70
2018-09-30T00:49:35.090Z,55.60
2018-09-30T00:54:26.034Z,55.60
2018-09-30T00:59:16.947Z,55.70
2018-09-30T01:04:07.824Z,55.70
2018-09-30T01:08:59.446Z,55.80
2018-09-30T01:13:50.378Z,55.70
2018-09-30T01:18:42.060Z,55.90
2018-09-30T01:23:33.726Z,55.80
2018-09-30T01:28:24.629Z,55.80
2018-09-30T01:33:15.524Z,55.80
2018-09-30T01:38:06.447Z,55.80
2018-09-30T01:42:58.094Z,55.80
2018-09-30T01:47:48.971Z,55.80
2018-09-30T01:52:39.921Z,55.90
2018-09-30T01:57:30.830Z,56.00
2018-09-30T02:02:22.482Z,56.00
2018-09-30T02:07:13.375Z,55.90
2018-09-30T02:12:04.991Z,55.80
2018-09-30T02:16:55.919Z,55.80
2018-09-30T02:21:46.798Z,55.90
2018-09-30T02:26:38.424Z,55.90
2018-09-30T02:31:29.355Z,55.80
2018-09-30T02:36:21.033Z,55.90
2018-09-30T02:41:12.689Z,56.20
2018-09-30T02:46:03.572Z,55.90
2018-09-30T02:50:54.483Z,55.90
2018-09-30T02:55:45.443Z,55.90
2018-09-30T03:00:36.382Z,56.00
2018-09-30T03:05:27.290Z,56.10
2018-09-30T03:10:18.189Z,56.00
2018-09-30T03:15:09.068Z,56.00
2018-09-30T03:19:59.994Z,56.00
2018-09-30T03:24:50.918Z,56.10
2018-09-30T03:29:41.803Z,56.10
2018-09-30T03:34:33.493Z,56.10
2018-09-30T03:39:25.179Z,56.00
2018-09-30T03:44:16.032Z,56.00
2018-09-30T03:49:06.934Z,56.10
2018-09-30T03:53:57.834Z,56.20
2018-09-30T03:58:48.730Z,56.20
2018-09-30T04:03:39.671Z,56.00
2018-09-30T04:08:30.593Z,56.10
2018-09-30T04:13:21.477Z,56.00
2018-09-30T04:18:12.424Z,56.00
2018-09-30T04:23:03.300Z,55.90
2018-09-30T04:27:54.191Z,56.00
2018-09-30T04:32:45.118Z,56.00
2018-09-30T04:37:36.761Z,56.10
2018-09-30T04:42:27.673Z,56.10
2018-09-30T04:47:19.312Z,56.20
2018-09-30T04:52:10.203Z,56.20
2018-09-30T04:57:01.862Z,56.00
2018-09-30T05:01:52.743Z,56.00
2018-09-30T05:06:43.694Z,56.00
2018-09-30T05:11:34.593Z,56.10
2018-09-30T05:16:26.234Z,56.10
2018-09-30T05:21:17.189Z,55.90
2018-09-30T05:26:08.122Z,55.80
2018-09-30T05:30:59.810Z,55.80
2018-09-30T05:35:51.462Z,55.90
2018-09-30T05:40:42.365Z,55.80
2018-09-30T05:45:34.078Z,56.00
2018-09-30T05:50:24.963Z,56.00
2018-09-30T05:55:15.866Z,56.40
2018-09-30T06:00:07.491Z,57.10
2018-09-30T06:04:58.429Z,57.00
2018-09-30T06:09:50.077Z,57.20
2018-09-30T06:14:40.970Z,57.20
2018-09-30T06:19:32.613Z,57.40
2018-09-30T06:24:23.573Z,57.40
2018-09-30T06:29:14.476Z,58.30
2018-09-30T06:34:06.853Z,58.10
2018-09-30T06:38:57.752Z,58.00
2018-09-30T06:43:48.679Z,58.50
2018-09-30T06:48:39.576Z,59.10
2018-09-30T06:53:31.290Z,59.50
2018-09-30T06:58:22.925Z,59.70
2018-09-30T07:03:13.846Z,59.70
2018-09-30T07:08:05.500Z,60.70
2018-09-30T07:12:56.404Z,60.70
2018-09-30T07:17:48.050Z,60.00
2018-09-30T07:22:38.984Z,59.90
2018-09-30T07:27:29.868Z,59.70
2018-09-30T07:32:20.778Z,59.50
2018-09-30T07:37:12.404Z,59.30
2018-09-30T07:42:03.321Z,59.20
2018-09-30T07:46:54.990Z,59.30
2018-09-30T07:51:45.908Z,59.20
2018-09-30T07:56:36.800Z,59.40
2018-09-30T08:01:27.737Z,59.20
2018-09-30T08:06:18.669Z,59.40
2018-09-30T08:11:09.596Z,59.30
2018-09-30T08:16:00.486Z,59.20
2018-09-30T08:20:51.375Z,59.20
2018-09-30T08:25:43.015Z,59.80
2018-09-30T08:30:34.011Z,59.00
2018-09-30T08:35:24.886Z,58.80
2018-09-30T08:40:15.785Z,58.80
2018-09-30T08:45:06.667Z,58.70
2018-09-30T08:49:57.652Z,58.70
2018-09-30T08:54:48.548Z,58.70
2018-09-30T08:59:39.497Z,58.60
2018-09-30T09:04:30.397Z,58.30
2018-09-30T09:09:22.039Z,58.40
2018-09-30T09:14:12.962Z,58.30
2018-09-30T09:19:04.595Z,56.70
2018-09-30T09:23:55.481Z,56.70
2018-09-30T09:28:46.430Z,56.90
2018-09-30T09:33:37.363Z,56.50
2018-09-30T09:38:28.291Z,56.20
2018-09-30T09:43:19.137Z,55.90
2018-09-30T09:48:10.116Z,55.80
2018-09-30T09:53:01.745Z,56.10
2018-09-30T09:57:52.717Z,56.10
2018-09-30T10:02:43.619Z,55.80
2018-09-30T10:07:34.522Z,55.50
2018-09-30T10:12:26.160Z,55.70
2018-09-30T10:17:17.099Z,55.60
2018-09-30T10:22:08.015Z,55.10
2018-09-30T10:26:59.687Z,55.00
2018-09-30T10:31:50.597Z,55.00
2018-09-30T10:36:42.264Z,54.00
2018-09-30T10:41:33.166Z,53.80
2018-09-30T10:46:24.063Z,53.80
2018-09-30T10:51:14.978Z,53.70
2018-09-30T10:56:06.644Z,53.30
2018-09-30T11:00:58.277Z,53.70
2018-09-30T11:05:49.200Z,53.80
2018-09-30T11:10:40.117Z,53.70
2018-09-30T11:15:31.009Z,53.80
2018-09-30T11:20:21.910Z,53.70
2018-09-30T11:25:13.588Z,52.30
2018-09-30T11:30:04.492Z,52.30
2018-09-30T11:34:55.509Z,52.00
2018-09-30T11:39:46.391Z,51.60
2018-09-30T11:44:38.028Z,51.40
2018-09-30T11:49:28.964Z,51.30
2018-09-30T11:54:19.850Z,50.70
2018-09-30T11:59:10.763Z,50.10
2018-09-30T12:04:01.672Z,49.40
2018-09-30T12:08:52.612Z,48.60
2018-09-30T12:13:44.254Z,47.20
2018-09-30T12:18:35.220Z,47.70
2018-09-30T12:23:26.813Z,48.20
2018-09-30T12:28:17.745Z,48.10
2018-09-30T12:33:08.656Z,47.60
2018-09-30T12:37:59.573Z,47.80
2018-09-30T12:42:50.472Z,45.70
2018-09-30T12:47:41.390Z,45.30
2018-09-30T12:52:33.036Z,44.80
2018-09-30T12:57:23.974Z,44.70
2018-09-30T13:02:14.879Z,43.00
2018-09-30T13:07:05.785Z,43.10
2018-09-30T13:11:56.709Z,43.00
2018-09-30T13:16:47.654Z,41.80
2018-09-30T13:21:38.547Z,42.00
2018-09-30T13:26:29.446Z,41.30
2018-09-30T13:31:21.116Z,42.90
2018-09-30T13:36:12.004Z,42.90
2018-09-30T13:41:03.791Z,42.70
2018-09-30T13:45:54.602Z,42.60
2018-09-30T13:50:45.494Z,41.60
2018-09-30T13:55:36.396Z,41.70
2018-09-30T14:00:27.309Z,41.60
2018-09-30T14:05:18.226Z,41.90
2018-09-30T14:10:09.132Z,42.90
2018-09-30T14:15:00.044Z,41.90
2018-09-30T14:19:51.686Z,43.40
2018-09-30T14:24:42.581Z,43.40
2018-09-30T14:29:33.489Z,43.60
2018-09-30T14:34:24.388Z,42.70
2018-09-30T14:39:15.322Z,43.40
2018-09-30T14:44:06.199Z,43.30
2018-09-30T14:48:57.099Z,43.60
2018-09-30T14:53:48.079Z,43.00
2018-09-30T14:58:38.942Z,42.30
2018-09-30T15:03:29.850Z,42.50
2018-09-30T15:08:20.757Z,42.80
2018-09-30T15:13:11.704Z,43.10
2018-09-30T15:18:02.804Z,43.30
2018-09-30T15:22:53.721Z,42.90
2018-09-30T15:27:45.365Z,43.20
2018-09-30T15:32:36.409Z,43.20
2018-09-30T15:37:27.328Z,43.20
2018-09-30T15:42:18.329Z,43.30
2018-09-30T15:47:09.471Z,42.90
2018-09-30T15:52:00.705Z,43.20
2018-09-30T15:56:52.382Z,44.60
2018-09-30T16:01:44.040Z,45.20
2018-09-30T16:06:34.952Z,45.10
2018-09-30T16:11:25.844Z,45.60
2018-09-30T16:16:17.480Z,46.30
2018-09-30T16:21:08.447Z,46.20
2018-09-30T16:26:00.077Z,46.50
2018-09-30T16:30:50.994Z,46.50
2018-09-30T16:35:41.916Z,46.70
2018-09-30T16:40:33.576Z,47.00
2018-09-30T16:45:24.514Z,47.00
2018-09-30T16:50:15.441Z,47.10
2018-09-30T16:55:06.354Z,47.30
2018-09-30T16:59:58.010Z,47.50
2018-09-30T17:04:49.713Z,47.80
2018-09-30T17:09:40.675Z,47.60
2018-09-30T17:14:31.720Z,47.80
2018-09-30T17:19:22.644Z,47.90
2018-09-30T17:24:13.549Z,48.10
2018-09-30T17:29:04.748Z,48.00
2018-09-30T17:33:56.483Z,48.30
2018-09-30T17:38:47.368Z,48.20
2018-09-30T17:43:38.251Z,48.40
2018-09-30T17:48:29.311Z,48.30
2018-09-30T17:53:21.748Z,48.40
2018-09-30T17:58:12.657Z,48.40
2018-09-30T18:03:03.629Z,48.60
2018-09-30T18:07:54.545Z,48.80
2018-09-30T18:12:45.454Z,49.00
2018-09-30T18:17:36.365Z,49.00
2018-09-30T18:22:28.088Z,49.30
2018-09-30T18:27:19.056Z,49.10
2018-09-30T18:32:10.004Z,49.30
2018-09-30T18:37:00.930Z,49.40
2018-09-30T18:41:51.913Z,49.40
2018-09-30T18:46:42.809Z,49.60
2018-09-30T18:51:33.820Z,49.60
2018-09-30T18:56:25.825Z,49.60
2018-09-30T19:01:17.432Z,49.80
2018-09-30T19:06:09.082Z,49.90
2018-09-30T19:11:00.015Z,49.80
2018-09-30T19:15:51.017Z,49.90
2018-09-30T19:20:41.901Z,49.90
2018-09-30T19:25:32.816Z,51.00
2018-09-30T19:30:24.525Z,51.00
2018-09-30T19:35:15.426Z,51.00
2018-09-30T19:40:06.450Z,51.10
2018-09-30T19:44:57.403Z,51.10
2018-09-30T19:49:49.051Z,51.30
2018-09-30T19:54:39.960Z,51.30
2018-09-30T19:59:31.643Z,51.40
2018-09-30T20:04:22.765Z,51.30
2018-09-30T20:09:13.748Z,51.40
2018-09-30T20:14:05.375Z,51.50
2018-09-30T20:18:57.126Z,51.60
2018-09-30T20:23:48.053Z,51.50
2018-09-30T20:28:39.063Z,51.60
2018-09-30T20:33:29.980Z,51.60
2018-09-30T20:38:20.935Z,51.70
2018-09-30T20:43:12.624Z,51.80
2018-09-30T20:48:04.393Z,51.90
2018-09-30T20:52:55.375Z,51.80
2018-09-30T20:57:47.051Z,52.10
2018-09-30T21:02:38.740Z,52.00
2018-09-30T21:07:30.395Z,52.10
2018-09-30T21:12:21.408Z,52.00
2018-09-30T21:17:12.312Z,52.10
2018-09-30T21:22:03.258Z,52.30
2018-09-30T21:26:54.253Z,53.00
2018-09-30T21:31:45.192Z,52.50
2018-09-30T21:36:36.140Z,52.50
2018-09-30T21:41:27.853Z,52.70
2018-09-30T21:46:18.755Z,52.60
2018-09-30T21:51:09.701Z,52.70
2018-09-30T21:56:00.658Z,52.90
2018-09-30T22:00:51.570Z,52.90
2018-09-30T22:05:43.332Z,52.90
2018-09-30T22:10:34.308Z,53.00
2018-09-30T22:15:25.334Z,52.80
2018-09-30T22:20:16.248Z,52.90
2018-09-30T22:25:07.156Z,52.90
2018-09-30T22:29:58.782Z,52.50
2018-09-30T22:34:49.726Z,53.00
2018-09-30T22:39:40.715Z,53.00
2018-09-30T22:44:31.658Z,53.00
2018-09-30T22:49:22.749Z,53.00
2018-09-30T22:54:13.706Z,53.10
2018-09-30T22:59:04.633Z,53.20
2018-09-30T23:03:55.662Z,53.10
2018-09-30T23:08:46.559Z,53.00
2018-09-30T23:13:37.500Z,53.20
2018-09-30T23:18:28.407Z,53.30
2018-09-30T23:23:20.917Z,53.30
2018-09-30T23:28:11.909Z,53.20
2018-09-30T23:33:03.569Z,53.30
2018-09-30T23:37:54.447Z,53.30
2018-09-30T23:42:46.078Z,53.50
2018-09-30T23:47:37.026Z,53.50
2018-09-30T23:52:27.989Z,53.50
2018-09-30T23:57:18.906Z,53.70
